createdAt,value
2023-11-21T00:00:24.589Z,99941.47
2023-11-21T00:02:54.389Z,99941.84
2023-11-21T00:05:24.418Z,99946.47
2023-11-21T00:07:52.980Z,99949.22
2023-11-21T00:10:21.528Z,99943.88
2023-11-21T00:12:49.980Z,99946.06
2023-11-21T00:15:19.348Z,99941.09
2023-11-21T00:17:48.394Z,99947.72
2023-11-21T00:20:18.197Z,99944.59
2023-11-21T00:22:46.325Z,99944.97
2023-11-21T00:25:16.597Z,99941.09
2023-11-21T00:27:45.570Z,99938.34
2023-11-21T00:30:16.121Z,99944.78
2023-11-21T00:32:44.830Z,99937.59
2023-11-21T00:35:13.145Z,99938.72
2023-11-21T00:37:43.605Z,99934.09
2023-11-21T00:40:15.707Z,99936.31
2023-11-21T00:42:45.069Z,99934.69
2023-11-21T00:45:13.407Z,99937.97
2023-11-21T00:47:41.648Z,99934.28
2023-11-21T00:50:11.357Z,99933.19
2023-11-21T00:52:39.789Z,99937.78
2023-11-21T00:55:11.373Z,99945.53
2023-11-21T00:57:39.891Z,99929.69
2023-11-21T01:00:12.105Z,99936.13
2023-11-21T01:02:40.800Z,99936.31
2023-11-21T01:05:10.194Z,99940.34
2023-11-21T01:07:38.813Z,99939.09
2023-11-21T01:10:10.313Z,99940.94
2023-11-21T01:12:39.936Z,99942.75
2023-11-21T01:15:09.545Z,99947.75
2023-11-21T01:17:39.672Z,99953.63
2023-11-21T01:20:13.396Z,99954.38
2023-11-21T01:22:42.726Z,99955.28
2023-11-21T01:25:12.584Z,99957.13
2023-11-21T01:27:41.131Z,99954.94
2023-11-21T01:30:11.965Z,99962.84
2023-11-21T01:32:41.062Z,99954.19
2023-11-21T01:35:11.189Z,99958.44
2023-11-21T01:37:40.146Z,99957.84
2023-11-21T01:40:15.401Z,99952.53
2023-11-21T01:42:46.194Z,99956.78
2023-11-21T01:45:15.345Z,99967.09
2023-11-21T01:47:45.072Z,99956.78
2023-11-21T01:50:18.846Z,99962.09
2023-11-21T01:52:48.784Z,99959.34
2023-11-21T01:55:34.503Z,99959.00
2023-11-21T01:58:04.572Z,99958.63
2023-11-21T02:00:34.499Z,99965.63
2023-11-21T02:03:03.860Z,99961.19
2023-11-21T02:05:32.768Z,99964.16
2023-11-21T02:08:02.002Z,99965.63
2023-11-21T02:10:32.219Z,99967.44
2023-11-21T02:13:03.597Z,99964.16
2023-11-21T02:15:34.205Z,99966.72
2023-11-21T02:18:04.480Z,99963.06
2023-11-21T02:20:35.698Z,99962.13
2023-11-21T02:23:07.357Z,99972.06
2023-11-21T02:25:38.475Z,99965.41
2023-11-21T02:28:08.074Z,99967.44
2023-11-21T02:30:38.246Z,99971.50
2023-11-21T02:33:07.492Z,99971.88
2023-11-21T02:35:36.588Z,99976.69
2023-11-21T02:38:04.757Z,99975.94
2023-11-21T02:40:34.571Z,99973.72
2023-11-21T02:43:02.945Z,99971.16
2023-11-21T02:45:31.958Z,99968.78
2023-11-21T02:48:00.459Z,99970.78
2023-11-21T02:50:29.259Z,99961.19
2023-11-21T02:52:59.313Z,99969.31
2023-11-21T02:55:28.461Z,99962.47
2023-11-21T02:57:59.243Z,99964.88
2023-11-21T03:00:28.141Z,99962.66
2023-11-21T03:02:58.775Z,99954.19
2023-11-21T03:05:30.333Z,99959.16
2023-11-21T03:07:58.928Z,99965.25
2023-11-21T03:10:28.412Z,99963.97
2023-11-21T03:12:59.511Z,99966.34
2023-11-21T03:15:28.063Z,99970.97
2023-11-21T03:17:56.349Z,99975.38
2023-11-21T03:20:27.057Z,99969.31
2023-11-21T03:22:55.793Z,99967.28
2023-11-21T03:25:25.352Z,99973.53
2023-11-21T03:27:54.486Z,99979.63
2023-11-21T03:30:24.325Z,99977.03
2023-11-21T03:32:53.924Z,99977.78
2023-11-21T03:35:22.581Z,99981.28
2023-11-21T03:37:51.246Z,99975.94
2023-11-21T03:40:19.505Z,99983.13
2023-11-21T03:42:48.074Z,99989.56
2023-11-21T03:45:16.663Z,99988.84
2023-11-21T03:47:46.673Z,99985.53
2023-11-21T03:50:15.259Z,99984.78
2023-11-21T03:52:45.634Z,99991.06
2023-11-21T03:55:14.403Z,99989.94
2023-11-21T03:57:44.910Z,99987.38
2023-11-21T04:00:14.351Z,99993.63
2023-11-21T04:02:42.590Z,99993.97
2023-11-21T04:05:13.632Z,99992.50
2023-11-21T04:07:42.472Z,100000.28
2023-11-21T04:10:13.736Z,99998.97
2023-11-21T04:12:42.061Z,99996.59
2023-11-21T04:15:11.719Z,100009.28
2023-11-21T04:17:40.191Z,100001.72
2023-11-21T04:20:11.098Z,100005.22
2023-11-21T04:22:45.121Z,100007.25
2023-11-21T04:25:16.644Z,100006.91
2023-11-21T04:27:46.339Z,100005.41
2023-11-21T04:30:16.027Z,100005.22
2023-11-21T04:32:44.462Z,100012.25
2023-11-21T04:35:12.836Z,100019.06
2023-11-21T04:37:43.021Z,100013.72
2023-11-21T04:40:12.457Z,100024.59
2023-11-21T04:42:40.887Z,100029.00
2023-11-21T04:45:12.900Z,100027.72
2023-11-21T04:47:42.413Z,100030.31
2023-11-21T04:50:11.713Z,100030.31
2023-11-21T04:52:40.315Z,100037.13
2023-11-21T04:55:11.891Z,100033.44
2023-11-21T04:57:42.716Z,100035.84
2023-11-21T05:00:12.600Z,100041.75
2023-11-21T05:02:43.055Z,100033.81
2023-11-21T05:05:11.931Z,100042.66
2023-11-21T05:07:42.692Z,100054.06
2023-11-21T05:10:13.557Z,100051.31
2023-11-21T05:12:43.526Z,100052.63
2023-11-21T05:15:15.871Z,100050.03
2023-11-21T05:17:45.283Z,100057.75
2023-11-21T05:20:15.509Z,100059.78
2023-11-21T05:22:44.013Z,100059.78
2023-11-21T05:25:15.368Z,100064.03
2023-11-21T05:27:43.954Z,100062.56
2023-11-21T05:30:14.154Z,100064.78
2023-11-21T05:32:44.702Z,100079.34
2023-11-21T05:35:16.972Z,100080.81
2023-11-21T05:37:46.742Z,100079.34
2023-11-21T05:40:17.702Z,100094.63
2023-11-21T05:42:46.734Z,100094.63
2023-11-21T05:45:15.640Z,100090.41
2023-11-21T05:47:47.625Z,100090.22
2023-11-21T05:50:17.805Z,100093.16
2023-11-21T05:52:48.334Z,100092.78
2023-11-21T05:55:18.750Z,100096.13
2023-11-21T05:57:47.599Z,100095.75
2023-11-21T06:00:22.461Z,100099.81
2023-11-21T06:02:53.976Z,100107.19
2023-11-21T06:05:25.988Z,100109.22
2023-11-21T06:07:55.914Z,100112.16
2023-11-21T06:10:26.339Z,100118.59
2023-11-21T06:12:55.289Z,100114.91
2023-11-21T06:15:24.826Z,100123.41
2023-11-21T06:17:54.896Z,100123.41
2023-11-21T06:20:24.715Z,100127.66
2023-11-21T06:22:53.778Z,100133.75
2023-11-21T06:25:23.057Z,100130.59
2023-11-21T06:27:55.133Z,100138.53
2023-11-21T06:30:24.468Z,100136.31
2023-11-21T06:32:54.562Z,100145.34
2023-11-21T06:35:23.640Z,100147.03
2023-11-21T06:37:53.625Z,100142.03
2023-11-21T06:40:22.814Z,100147.38
2023-11-21T06:42:52.020Z,100152.91
2023-11-21T06:45:21.839Z,100160.66
2023-11-21T06:47:51.398Z,100162.88
2023-11-21T06:50:20.511Z,100170.63
2023-11-21T06:52:49.987Z,100171.00
2023-11-21T06:55:18.600Z,100168.22
2023-11-21T06:57:48.385Z,100170.22
2023-11-21T07:00:20.446Z,100180.56
2023-11-21T07:02:48.939Z,100186.84
2023-11-21T07:05:22.092Z,100188.31
2023-11-21T07:07:51.905Z,100188.13
2023-11-21T07:10:20.629Z,100194.03
2023-11-21T07:12:48.985Z,100195.31
2023-11-21T07:15:20.741Z,100197.91
2023-11-21T07:17:50.023Z,100208.22
2023-11-21T07:20:19.294Z,100212.66
2023-11-21T07:22:48.045Z,100213.03
2023-11-21T07:25:16.560Z,100211.91
2023-11-21T07:27:45.673Z,100223.38
2023-11-21T07:30:15.440Z,100221.34
2023-11-21T07:32:46.211Z,100234.97
2023-11-21T07:35:14.496Z,100230.75
2023-11-21T07:37:42.745Z,100218.56
2023-11-21T07:40:12.663Z,100220.78
2023-11-21T07:42:41.242Z,100229.44
2023-11-21T07:45:10.742Z,100238.47
2023-11-21T07:47:40.732Z,100233.69
2023-11-21T07:50:11.688Z,100237.38
2023-11-21T07:52:40.972Z,100236.09
2023-11-21T07:55:09.808Z,100242.19
2023-11-21T07:57:38.326Z,100243.28
2023-11-21T08:00:10.843Z,100254.34
2023-11-21T08:02:46.936Z,100251.41
2023-11-21T08:05:24.915Z,100250.66
2023-11-21T08:07:57.494Z,100251.03
2023-11-21T08:10:27.194Z,100263.97
2023-11-21T08:12:58.075Z,100255.13
2023-11-21T08:15:26.742Z,100258.81
2023-11-21T08:17:55.524Z,100268.03
2023-11-21T08:20:26.750Z,100273.03
2023-11-21T08:22:57.986Z,100275.78
2023-11-21T08:25:27.077Z,100284.09
2023-11-21T08:27:55.494Z,100273.75
2023-11-21T08:30:25.254Z,100271.19
2023-11-21T08:32:55.205Z,100273.75
2023-11-21T08:35:27.920Z,100282.78
2023-11-21T08:37:56.403Z,100290.56
2023-11-21T08:40:27.498Z,100291.66
2023-11-21T08:42:56.330Z,100293.50
2023-11-21T08:45:24.590Z,100292.38
2023-11-21T08:48:01.371Z,100298.13
2023-11-21T08:50:49.247Z,100297.56
2023-11-21T08:53:17.942Z,100303.28
2023-11-21T08:55:46.258Z,100304.94
2023-11-21T08:58:14.585Z,100306.25
2023-11-21T09:00:43.364Z,100312.88
2023-11-21T09:03:11.733Z,100307.91
2023-11-21T09:05:41.246Z,100322.66
2023-11-21T09:08:11.776Z,100322.84
2023-11-21T09:10:40.883Z,100327.09
2023-11-21T09:13:11.310Z,100328.56
2023-11-21T09:15:39.628Z,100325.63
2023-11-21T09:18:08.116Z,100322.66
2023-11-21T09:20:37.158Z,100332.63
2023-11-21T09:23:05.554Z,100335.94
2023-11-21T09:25:35.543Z,100335.75
2023-11-21T09:28:06.127Z,100339.63
2023-11-21T09:30:34.630Z,100344.63
2023-11-21T09:33:03.185Z,100353.13
2023-11-21T09:35:31.567Z,100349.59
2023-11-21T09:38:00.227Z,100349.78
2023-11-21T09:40:28.588Z,100350.50
2023-11-21T09:42:59.949Z,100355.88
2023-11-21T09:45:29.785Z,100357.38
2023-11-21T09:47:59.625Z,100364.75
2023-11-21T09:50:28.523Z,100365.50
2023-11-21T09:53:02.018Z,100373.06
2023-11-21T09:55:33.014Z,100375.84
2023-11-21T09:58:02.965Z,100382.13
2023-11-21T10:00:34.218Z,100383.22
2023-11-21T10:03:03.158Z,100381.91
2023-11-21T10:05:35.716Z,100377.88
2023-11-21T10:08:07.785Z,100385.63
2023-11-21T10:10:38.468Z,100385.81
2023-11-21T10:13:08.820Z,100383.59
2023-11-21T10:15:37.527Z,100386.13
2023-11-21T10:18:07.665Z,100383.38
2023-11-21T10:20:39.357Z,100382.44
2023-11-21T10:23:08.902Z,100375.44
2023-11-21T10:25:38.336Z,100385.03
2023-11-21T10:28:08.471Z,100379.50
2023-11-21T10:30:39.044Z,100385.75
2023-11-21T10:33:09.343Z,100385.38
2023-11-21T10:35:48.435Z,100400.13
2023-11-21T10:38:17.019Z,100397.38
2023-11-21T10:40:47.768Z,100397.22
2023-11-21T10:43:18.634Z,100396.63
2023-11-21T10:45:47.705Z,100400.91
2023-11-21T10:48:20.052Z,100399.03
2023-11-21T10:50:49.938Z,100400.13
2023-11-21T10:53:20.404Z,100396.72
2023-11-21T10:55:49.877Z,100400.38
2023-11-21T10:58:19.980Z,100401.44
2023-11-21T11:00:50.112Z,100414.41
2023-11-21T11:03:19.657Z,100415.78
2023-11-21T11:05:53.449Z,100401.91
2023-11-21T11:08:28.399Z,100403.47
2023-11-21T11:10:59.865Z,100401.84
2023-11-21T11:13:30.414Z,100393.75
2023-11-21T11:16:06.753Z,100400.41
2023-11-21T11:18:36.192Z,100401.09
2023-11-21T11:21:13.355Z,100408.81
2023-11-21T11:24:00.376Z,100400.69
2023-11-21T11:26:39.261Z,100402.16
2023-11-21T11:29:18.245Z,100402.81
2023-11-21T11:32:00.452Z,100397.81
2023-11-21T11:34:42.869Z,100390.09
2023-11-21T11:37:12.167Z,100382.72
2023-11-21T11:39:42.861Z,100383.69
2023-11-21T11:42:15.207Z,100391.16
2023-11-21T11:44:57.614Z,100390.88
2023-11-21T11:47:29.692Z,100402.94
2023-11-21T11:50:14.652Z,100403.69
2023-11-21T11:52:44.525Z,100403.34
2023-11-21T11:55:13.409Z,100408.03
2023-11-21T11:57:43.399Z,100409.69
2023-11-21T12:00:19.912Z,100416.41
2023-11-21T12:02:50.094Z,100414.75
2023-11-21T12:05:20.355Z,100403.09
2023-11-21T12:07:50.847Z,100418.22
2023-11-21T12:10:20.486Z,100422.97
2023-11-21T12:12:49.233Z,100412.41
2023-11-21T12:15:19.947Z,100410.44
2023-11-21T12:17:50.026Z,100416.38
2023-11-21T12:20:22.517Z,100412.72
2023-11-21T12:22:53.849Z,100409.78
2023-11-21T12:25:25.029Z,100407.16
2023-11-21T12:27:55.864Z,100418.44
2023-11-21T12:30:29.202Z,100405.88
2023-11-21T12:32:58.866Z,100414.59
2023-11-21T12:35:28.207Z,100418.03
2023-11-21T12:38:00.030Z,100421.41
2023-11-21T12:40:28.927Z,100435.94
2023-11-21T12:43:00.167Z,100433.50
2023-11-21T12:45:32.261Z,100434.56
2023-11-21T12:48:04.823Z,100429.22
2023-11-21T12:50:34.904Z,100443.78
2023-11-21T12:53:06.583Z,100439.69
2023-11-21T12:55:38.720Z,100443.78
2023-11-21T12:58:10.598Z,100435.03
2023-11-21T13:00:43.958Z,100446.38
2023-11-21T13:03:18.028Z,100445.59
2023-11-21T13:05:52.934Z,100445.78
2023-11-21T13:08:24.472Z,100448.19
2023-11-21T13:10:56.806Z,100452.00
2023-11-21T13:13:29.771Z,100447.59
2023-11-21T13:16:05.908Z,100453.16
2023-11-21T13:18:35.342Z,100454.97
2023-11-21T13:21:12.519Z,100457.44
2023-11-21T13:23:42.529Z,100463.00
2023-11-21T13:26:11.136Z,100448.25
2023-11-21T13:28:41.961Z,100466.22
2023-11-21T13:31:24.176Z,100466.56
2023-11-21T13:33:57.381Z,100466.75
2023-11-21T13:36:31.877Z,100471.09
2023-11-21T13:39:05.674Z,100475.00
2023-11-21T13:41:34.343Z,100478.75
2023-11-21T13:44:07.491Z,100474.47
2023-11-21T13:46:39.126Z,100476.81
2023-11-21T13:49:10.975Z,100481.56
2023-11-21T13:51:42.747Z,100479.50
2023-11-21T13:54:11.608Z,100490.88
2023-11-21T13:56:42.506Z,100501.25
2023-11-21T13:59:22.220Z,100498.31
2023-11-21T14:02:00.648Z,100502.59
2023-11-21T14:04:54.378Z,100507.94
2023-11-21T14:07:31.885Z,100507.41
2023-11-21T14:10:00.417Z,100502.47
2023-11-21T14:12:29.724Z,100504.69
2023-11-21T14:14:58.002Z,100516.94
2023-11-21T14:17:28.435Z,100515.28
2023-11-21T14:19:57.530Z,100519.31
2023-11-21T14:22:27.309Z,100516.75
2023-11-21T14:24:57.150Z,100523.59
2023-11-21T14:27:26.001Z,100522.16
2023-11-21T14:29:54.724Z,100519.59
2023-11-21T14:32:23.345Z,100529.00
2023-11-21T14:34:53.350Z,100521.94
2023-11-21T14:37:21.488Z,100531.38
2023-11-21T14:39:51.192Z,100528.63
2023-11-21T14:42:26.084Z,100528.06
2023-11-21T14:44:56.385Z,100527.91
2023-11-21T14:47:28.221Z,100531.41
2023-11-21T14:50:01.176Z,100536.59
2023-11-21T14:52:36.172Z,100535.31
2023-11-21T14:55:22.477Z,100536.03
2023-11-21T14:57:51.533Z,100549.38
2023-11-21T15:00:45.571Z,100549.56
2023-11-21T15:03:32.686Z,100541.78
2023-11-21T15:06:13.756Z,100550.47
2023-11-21T15:08:44.583Z,100545.09
2023-11-21T15:11:15.979Z,100556.16
2023-11-21T15:13:44.846Z,100558.41
2023-11-21T15:16:13.868Z,100563.22
2023-11-21T15:18:42.171Z,100559.88
2023-11-21T15:21:13.294Z,100573.91
2023-11-21T15:23:43.413Z,100572.59
2023-11-21T15:26:12.108Z,100572.78
2023-11-21T15:28:40.734Z,100566.31
2023-11-21T15:31:09.893Z,100568.88
2023-11-21T15:33:38.493Z,100582.56
2023-11-21T15:36:11.342Z,100574.97
2023-11-21T15:38:41.053Z,100583.66
2023-11-21T15:41:12.548Z,100580.88
2023-11-21T15:43:41.175Z,100578.63
2023-11-21T15:46:09.493Z,100583.81
2023-11-21T15:48:39.935Z,100581.19
2023-11-21T15:51:11.664Z,100586.53
2023-11-21T15:53:41.293Z,100588.75
2023-11-21T15:56:13.269Z,100589.84
2023-11-21T15:58:43.741Z,100590.59
2023-11-21T16:01:13.954Z,100595.22
2023-11-21T16:03:42.538Z,100603.53
2023-11-21T16:06:12.861Z,100599.66
2023-11-21T16:08:43.481Z,100612.22
2023-11-21T16:11:11.816Z,100611.63
2023-11-21T16:13:42.269Z,100619.63
2023-11-21T16:16:10.623Z,100618.09
2023-11-21T16:18:39.117Z,100624.41
2023-11-21T16:21:09.188Z,100627.00
2023-11-21T16:23:38.195Z,100628.84
2023-11-21T16:26:08.249Z,100632.97
2023-11-21T16:28:36.687Z,100645.09
2023-11-21T16:31:05.060Z,100650.44
2023-11-21T16:33:33.656Z,100648.22
2023-11-21T16:36:02.207Z,100651.91
2023-11-21T16:38:30.669Z,100657.44
2023-11-21T16:40:59.507Z,100665.59
2023-11-21T16:43:29.335Z,100665.16
2023-11-21T16:45:57.364Z,100667.97
2023-11-21T16:48:26.840Z,100661.38
2023-11-21T16:50:55.212Z,100670.75
2023-11-21T16:53:23.701Z,100672.59
2023-11-21T16:55:52.220Z,100675.19
2023-11-21T16:58:19.871Z,100681.22
2023-11-21T17:00:49.540Z,100689.47
2023-11-21T17:03:18.235Z,100704.22
2023-11-21T17:05:46.584Z,100709.00
2023-11-21T17:08:16.642Z,100709.72
2023-11-21T17:10:45.449Z,100710.56
2023-11-21T17:13:13.821Z,100712.06
2023-11-21T17:15:45.689Z,100717.88
2023-11-21T17:18:16.093Z,100729.16
2023-11-21T17:20:45.042Z,100730.56
2023-11-21T17:23:14.089Z,100742.41
2023-11-21T17:25:42.470Z,100735.50
2023-11-21T17:28:11.189Z,100736.69
2023-11-21T17:30:39.968Z,100739.19
2023-11-21T17:33:08.803Z,100737.59
2023-11-21T17:35:39.047Z,100737.75
2023-11-21T17:38:07.924Z,100740.31
2023-11-21T17:40:39.660Z,100740.88
2023-11-21T17:43:08.110Z,100744.69
2023-11-21T17:45:36.392Z,100743.22
2023-11-21T17:48:05.605Z,100754.06
2023-11-21T17:50:34.043Z,100756.63
2023-11-21T17:53:05.119Z,100761.44
2023-11-21T17:55:33.840Z,100762.16
2023-11-21T17:58:02.324Z,100766.22
2023-11-21T18:00:32.068Z,100759.75
2023-11-21T18:03:00.665Z,100765.28
2023-11-21T18:05:29.302Z,100765.94
2023-11-21T18:07:57.578Z,100776.19
2023-11-21T18:10:27.352Z,100782.03
2023-11-21T18:12:58.922Z,100774.81
2023-11-21T18:15:27.608Z,100781.88
2023-11-21T18:17:55.814Z,100779.41
2023-11-21T18:20:25.238Z,100789.00
2023-11-21T18:22:53.785Z,100793.06
2023-11-21T18:25:22.373Z,100800.06
2023-11-21T18:27:52.844Z,100799.66
2023-11-21T18:30:22.453Z,100798.69
2023-11-21T18:32:51.205Z,100806.69
2023-11-21T18:35:19.672Z,100805.72
2023-11-21T18:37:49.111Z,100814.03
2023-11-21T18:40:18.512Z,100817.53
2023-11-21T18:42:47.451Z,100815.28
2023-11-21T18:45:17.394Z,100833.03
2023-11-21T18:47:50.241Z,100830.63
2023-11-21T18:50:22.120Z,100834.00
2023-11-21T18:52:51.391Z,100845.81
2023-11-21T18:55:19.873Z,100838.56
2023-11-21T18:57:50.657Z,100836.88
2023-11-21T19:00:21.562Z,100842.44
2023-11-21T19:02:50.379Z,100843.72
2023-11-21T19:05:19.220Z,100847.97
2023-11-21T19:07:47.568Z,100847.97
2023-11-21T19:10:15.827Z,100860.50
2023-11-21T19:12:44.332Z,100866.38
2023-11-21T19:15:14.538Z,100863.06
2023-11-21T19:17:44.502Z,100868.91
2023-11-21T19:20:13.576Z,100864.47
2023-11-21T19:22:42.661Z,100864.97
2023-11-21T19:25:12.862Z,100876.56
2023-11-21T19:27:41.288Z,100873.03
2023-11-21T19:30:12.499Z,100872.19
2023-11-21T19:32:41.393Z,100885.38
2023-11-21T19:35:12.208Z,100888.06
2023-11-21T19:37:40.907Z,100879.97
2023-11-21T19:40:10.333Z,100890.59
2023-11-21T19:42:40.522Z,100893.28
2023-11-21T19:45:10.496Z,100897.31
2023-11-21T19:47:40.402Z,100906.16
2023-11-21T19:50:11.869Z,100911.47
2023-11-21T19:52:40.319Z,100914.97
2023-11-21T19:55:10.132Z,100920.50
2023-11-21T19:57:38.618Z,100918.47
2023-11-21T20:00:09.487Z,100922.31
2023-11-21T20:02:38.021Z,100919.44
2023-11-21T20:05:06.771Z,100921.53
2023-11-21T20:07:36.545Z,100944.09
2023-11-21T20:10:06.024Z,100937.94
2023-11-21T20:12:34.644Z,100936.13
2023-11-21T20:15:04.194Z,100937.63
2023-11-21T20:17:32.687Z,100939.97
2023-11-21T20:20:00.996Z,100937.09
2023-11-21T20:22:29.825Z,100938.16
2023-11-21T20:24:59.519Z,100954.94
2023-11-21T20:27:30.924Z,100949.84
2023-11-21T20:30:01.258Z,100949.19
2023-11-21T20:32:30.273Z,100963.31
2023-11-21T20:34:58.489Z,100963.16
2023-11-21T20:37:26.999Z,100975.19
2023-11-21T20:39:55.543Z,100975.91
2023-11-21T20:42:25.349Z,100987.38
2023-11-21T20:44:54.387Z,100982.47
2023-11-21T20:47:24.108Z,100984.28
2023-11-21T20:49:59.301Z,100988.13
2023-11-21T20:52:28.002Z,100991.28
2023-11-21T20:54:57.316Z,100985.00
2023-11-21T20:57:27.382Z,100979.59
2023-11-21T20:59:55.697Z,100985.94
2023-11-21T21:02:25.286Z,100979.66
2023-11-21T21:04:54.298Z,100991.03
2023-11-21T21:07:22.577Z,100988.78
2023-11-21T21:09:51.592Z,100995.94
2023-11-21T21:12:20.233Z,101002.53
2023-11-21T21:14:49.867Z,101001.66
2023-11-21T21:17:18.329Z,100992.53
2023-11-21T21:19:46.838Z,101001.84
2023-11-21T21:22:15.215Z,101006.53
2023-11-21T21:24:43.689Z,101009.94
2023-11-21T21:27:12.194Z,101004.78
2023-11-21T21:29:40.641Z,101011.78
2023-11-21T21:32:10.352Z,101015.38
2023-11-21T21:34:40.321Z,101021.19
2023-11-21T21:37:09.243Z,101025.53
2023-11-21T21:39:37.606Z,101028.50
2023-11-21T21:42:07.304Z,101030.28
2023-11-21T21:44:35.832Z,101037.00
2023-11-21T21:47:05.933Z,101038.03
2023-11-21T21:49:35.572Z,101030.22
2023-11-21T21:52:07.618Z,101037.72
2023-11-21T21:54:36.591Z,101042.50
2023-11-21T21:57:09.784Z,101046.97
2023-11-21T21:59:39.215Z,101053.38
2023-11-21T22:02:07.986Z,101058.66
2023-11-21T22:04:40.838Z,101049.81
2023-11-21T22:07:11.032Z,101061.13
2023-11-21T22:09:39.420Z,101063.94
2023-11-21T22:12:09.585Z,101076.66
2023-11-21T22:14:37.861Z,101077.66
2023-11-21T22:17:06.487Z,101083.16
2023-11-21T22:19:34.900Z,101090.56
2023-11-21T22:22:05.307Z,101097.59
2023-11-21T22:24:34.821Z,101105.00
2023-11-21T22:27:03.164Z,101114.63
2023-11-21T22:29:31.601Z,101108.41
2023-11-21T22:32:00.381Z,101103.44
2023-11-21T22:34:30.213Z,101103.94
2023-11-21T22:36:58.665Z,101104.13
2023-11-21T22:39:28.259Z,101116.88
2023-11-21T22:41:56.876Z,101117.13
2023-11-21T22:44:25.597Z,101124.31
2023-11-21T22:47:01.491Z,101125.97
2023-11-21T22:49:30.490Z,101119.06
2023-11-21T22:52:00.417Z,101122.59
2023-11-21T22:54:32.187Z,101129.63
2023-11-21T22:57:00.800Z,101130.19
2023-11-21T22:59:29.107Z,101140.22
2023-11-21T23:01:58.753Z,101142.22
2023-11-21T23:04:27.716Z,101147.69
2023-11-21T23:06:56.289Z,101134.91
2023-11-21T23:09:24.519Z,101155.59
2023-11-21T23:11:56.658Z,101156.13
2023-11-21T23:14:28.133Z,101164.91
2023-11-21T23:16:59.087Z,101170.19
2023-11-21T23:19:28.618Z,101182.22
2023-11-21T23:21:56.819Z,101181.75
2023-11-21T23:24:25.128Z,101187.50
2023-11-21T23:26:53.454Z,101186.06
2023-11-21T23:29:24.332Z,101185.91
2023-11-21T23:31:52.913Z,101189.16
2023-11-21T23:34:21.577Z,101203.69
2023-11-21T23:36:49.783Z,101200.47
2023-11-21T23:39:18.305Z,101200.50
2023-11-21T23:41:46.841Z,101196.22
2023-11-21T23:44:18.134Z,101200.50
2023-11-21T23:46:47.751Z,101199.00
2023-11-21T23:49:16.698Z,101213.75
2023-11-21T23:51:45.182Z,101205.75
2023-11-21T23:54:13.517Z,101205.75
2023-11-21T23:56:41.869Z,101203.78
2023-11-21T23:59:11.217Z,101214.75
